Time;durP1;ratioP1;P1;durP2;ratioP2;P2;SDS_P1;SDS_P2;PMS_P1;PMS_P2;Temp;Humidity;BMP_temperature;BMP_pressure;BME280_temperature;BME280_humidity;BME280_pressure;Samples;Min_cycle;Max_cycle;Signal;HPM_P1;HPM_P2
2022/04/26 03:37:19;;;;;;;11.05;6.50;;;;;;;7.57;100.00;100127.56;5590189;31;34656;-65
2022/04/26 03:40:22;;;;;;;10.50;7.43;;;;;;;7.47;100.00;100125.03;5575975;31;34016;-65
2022/04/26 03:43:24;;;;;;;11.40;6.80;;;;;;;7.50;100.00;100134.47;5589350;31;33964;-65
2022/04/26 03:46:27;;;;;;;8.65;6.47;;;;;;;7.48;100.00;100139.06;5575707;31;32723;-65
2022/04/26 03:49:30;;;;;;;9.63;6.93;;;;;;;7.38;100.00;100131.22;5589884;31;34736;-65
2022/04/26 03:52:33;;;;;;;10.57;6.90;;;;;;;7.39;100.00;100138.16;5576017;31;33124;-65
2022/04/26 03:55:36;;;;;;;10.88;7.75;;;;;;;7.29;100.00;100143.53;5590003;31;34406;-64
2022/04/26 03:58:39;;;;;;;10.43;7.12;;;;;;;7.28;100.00;100151.59;5575693;31;34044;-65
2022/04/26 04:01:42;;;;;;;13.20;8.07;;;;;;;7.25;100.00;100151.91;5575716;31;33372;-65
2022/04/26 04:04:45;;;;;;;11.32;7.87;;;;;;;7.20;100.00;100152.37;5575856;31;32717;-64
2022/04/26 04:07:48;;;;;;;12.18;7.82;;;;;;;7.17;100.00;100160.56;5575102;31;32935;-64
2022/04/26 04:10:51;;;;;;;11.35;7.93;;;;;;;7.19;100.00;100166.53;5575780;31;32495;-65
2022/04/26 04:13:54;;;;;;;10.63;6.93;;;;;;;7.29;100.00;100164.66;5575666;31;32462;-65
2022/04/26 04:16:57;;;;;;;11.15;7.20;;;;;;;7.31;100.00;100172.41;5575717;31;32347;-65
2022/04/26 04:20:01;;;;;;;12.37;8.13;;;;;;;7.33;100.00;100175.72;5589678;31;33891;-64
2022/04/26 04:23:04;;;;;;;12.57;7.03;;;;;;;7.41;100.00;100181.88;5562249;31;32715;-65
2022/04/26 04:26:10;;;;;;;11.25;7.20;;;;;;;7.42;100.00;100177.44;5589343;31;34075;-65
2022/04/26 04:29:13;;;;;;;10.95;7.15;;;;;;;7.42;100.00;100193.28;5575156;31;32549;-65
2022/04/26 04:32:16;;;;;;;11.43;7.82;;;;;;;7.47;100.00;100185.72;5589502;31;34598;-65
2022/04/26 04:35:18;;;;;;;12.05;7.12;;;;;;;7.54;100.00;100189.44;5575237;31;33863;-65
2022/04/26 04:38:22;;;;;;;14.13;8.43;;;;;;;7.60;100.00;100188.78;5575241;31;33355;-65
2022/04/26 04:41:25;;;;;;;10.23;7.35;;;;;;;7.60;100.00;100195.91;5588837;31;34019;-65
2022/04/26 04:44:27;;;;;;;11.30;7.82;;;;;;;7.68;100.00;100198.59;5588945;31;34133;-65
2022/04/26 04:47:30;;;;;;;10.80;7.20;;;;;;;7.73;100.00;100198.97;5589233;31;34294;-66
2022/04/26 04:50:33;;;;;;;11.23;7.32;;;;;;;7.83;100.00;100207.63;5588642;31;35218;-65
2022/04/26 04:53:36;;;;;;;10.27;7.47;;;;;;;7.92;100.00;100204.06;5574596;31;33641;-65
2022/04/26 04:56:38;;;;;;;8.70;6.70;;;;;;;8.08;100.00;100201.53;5574166;31;32588;-65
2022/04/26 04:59:41;;;;;;;8.82;6.50;;;;;;;8.11;100.00;100208.31;5588544;31;33907;-65
2022/04/26 05:02:44;;;;;;;9.85;6.47;;;;;;;8.13;100.00;100215.09;5574590;31;32708;-65
2022/04/26 05:05:47;;;;;;;8.95;6.60;;;;;;;8.24;100.00;100209.53;5574649;31;32380;-65
2022/04/26 05:08:50;;;;;;;8.90;6.30;;;;;;;8.35;100.00;100205.84;5588665;31;34118;-66
2022/04/26 05:11:53;;;;;;;10.30;6.85;;;;;;;8.33;100.00;100212.28;5574470;31;32654;-66
2022/04/26 05:14:55;;;;;;;9.25;5.90;;;;;;;8.51;100.00;100216.50;5588277;31;33996;-66
2022/04/26 05:17:58;;;;;;;10.30;6.62;;;;;;;8.53;100.00;100234.81;5573935;31;33240;-65
2022/04/26 05:21:01;;;;;;;9.40;6.37;;;;;;;8.47;100.00;100230.19;5574401;31;33184;-64
2022/04/26 05:27:27;;;;;;;9.10;5.93;;;;;;;8.59;100.00;100247.41;5587568;31;33942;-64
2022/04/26 05:30:30;;;;;;;10.45;6.07;;;;;;;8.72;100.00;100237.22;5587966;31;34684;-65
2022/04/26 05:33:33;;;;;;;10.68;5.72;;;;;;;8.72;100.00;100242.50;5587527;31;34589;-64
2022/04/26 05:36:36;;;;;;;9.93;6.65;;;;;;;8.87;100.00;100246.22;5573848;31;33981;-65
2022/04/26 05:39:38;;;;;;;9.18;6.05;;;;;;;8.86;100.00;100244.53;5573775;31;32405;-65
2022/04/26 05:42:41;;;;;;;8.60;5.90;;;;;;;8.99;100.00;100252.06;5573290;31;34110;-65
2022/04/26 05:45:44;;;;;;;8.02;5.65;;;;;;;9.24;100.00;100250.31;5573220;31;33327;-66
2022/04/26 05:48:47;;;;;;;8.93;5.85;;;;;;;9.18;100.00;100243.00;5587020;31;34033;-64
2022/04/26 05:51:50;;;;;;;10.75;5.40;;;;;;;9.33;99.27;100246.69;5587253;31;34643;-65
2022/04/26 05:54:53;;;;;;;8.50;5.15;;;;;;;9.49;98.16;100251.97;5573380;31;32417;-64
2022/04/26 05:57:55;;;;;;;10.40;5.03;;;;;;;9.63;98.13;100261.13;5587363;31;34712;-65
2022/04/26 06:01:00;;;;;;;8.45;5.40;;;;;;;9.76;97.13;100258.78;5573739;31;34631;-65
2022/04/26 06:04:02;;;;;;;9.77;5.87;;;;;;;9.63;98.34;100259.31;5586943;31;34641;-65
2022/04/26 06:07:05;;;;;;;8.77;5.03;;;;;;;9.90;96.32;100266.91;5573041;31;34017;-64
2022/04/26 06:10:10;;;;;;;7.32;5.20;;;;;;;9.85;96.64;100266.56;5590052;31;33999;-65
2022/04/26 06:13:13;;;;;;;8.75;5.43;;;;;;;9.95;96.55;100263.75;5576267;31;32952;-64
2022/04/26 06:16:16;;;;;;;10.27;5.22;;;;;;;10.09;95.70;100263.09;5590099;31;35257;-65
2022/04/26 06:19:18;;;;;;;8.23;4.40;;;;;;;10.21;94.68;100263.59;5575696;31;32527;-65
2022/04/26 06:22:21;;;;;;;7.50;4.10;;;;;;;10.26;93.94;100261.28;5589283;31;34116;-64
2022/04/26 06:25:23;;;;;;;7.80;4.78;;;;;;;10.38;92.69;100259.91;5575796;31;32362;-65
2022/04/26 06:28:26;;;;;;;7.15;4.93;;;;;;;10.41;92.44;100262.22;5589766;31;33881;-65
2022/04/26 06:31:29;;;;;;;6.05;4.55;;;;;;;10.48;92.32;100265.88;5576005;31;32624;-65
2022/04/26 06:34:32;;;;;;;8.48;4.45;;;;;;;10.58;91.60;100263.84;5589714;31;34320;-65
2022/04/26 06:37:36;;;;;;;8.05;4.32;;;;;;;10.70;89.86;100254.50;5576056;31;34361;-66
2022/04/26 06:40:39;;;;;;;6.62;4.65;;;;;;;10.79;88.49;100260.63;5589854;31;33940;-64
2022/04/26 06:43:42;;;;;;;6.82;4.30;;;;;;;11.05;87.59;100266.47;5576050;31;32709;-65
2022/04/26 06:46:45;;;;;;;5.97;4.20;;;;;;;11.34;85.62;100256.03;5589607;31;34164;-64
2022/04/26 06:49:47;;;;;;;5.43;3.53;;;;;;;11.63;84.07;100254.50;5589820;31;33985;-66
2022/04/26 06:52:50;;;;;;;4.60;3.47;;;;;;;11.67;82.34;100258.44;5589854;31;34202;-65
2022/04/26 06:55:52;;;;;;;6.50;3.50;;;;;;;11.90;80.10;100261.13;5576052;31;33293;-65
2022/04/26 06:58:55;;;;;;;6.25;3.00;;;;;;;12.32;78.89;100260.56;5589723;31;34655;-65
2022/04/26 07:01:58;;;;;;;6.43;3.30;;;;;;;12.20;76.50;100250.37;5575761;31;32736;-65
2022/04/26 07:05:02;;;;;;;6.20;3.10;;;;;;;12.95;74.20;100260.00;5575941;31;34110;-67
2022/04/26 07:08:05;;;;;;;4.53;2.70;;;;;;;13.07;72.12;100263.84;5575761;31;34707;-65
2022/04/26 07:11:07;;;;;;;4.68;3.05;;;;;;;13.93;67.46;100268.25;5575771;31;34084;-66
2022/04/26 07:14:11;;;;;;;4.50;2.62;;;;;;;14.34;66.63;100277.19;5575547;31;33450;-64
2022/04/26 07:17:19;;;;;;;3.75;2.37;;;;;;;14.64;63.79;100267.16;5563623;31;33249;-65
2022/04/26 07:20:21;;;;;;;3.70;2.15;;;;;;;15.37;62.35;100267.47;5589628;31;33955;-66
2022/04/26 07:23:24;;;;;;;2.67;1.90;;;;;;;15.13;60.28;100264.31;5589461;31;34633;-66
2022/04/26 07:26:27;;;;;;;4.00;2.30;;;;;;;15.83;59.17;100265.72;5562524;31;34247;-65
2022/04/26 07:29:30;;;;;;;3.12;2.12;;;;;;;15.70;58.44;100265.72;5589706;31;34057;-66
2022/04/26 07:35:56;;;;;;;3.97;1.77;;;;;;;17.24;53.91;100275.78;5575396;31;32687;-66
2022/04/26 07:38:58;;;;;;;2.83;1.50;;;;;;;17.51;51.83;100279.19;5589858;31;33987;-66
2022/04/26 07:42:03;;;;;;;1.90;1.30;;;;;;;17.69;51.44;100276.62;5575382;31;32715;-67
2022/04/26 07:45:07;;;;;;;2.17;1.58;;;;;;;18.85;48.10;100284.09;5562738;31;33231;-67
2022/04/26 07:48:11;;;;;;;1.65;1.23;;;;;;;18.35;49.08;100281.44;5575363;31;33836;-66
2022/04/26 07:51:14;;;;;;;1.77;1.25;;;;;;;19.35;46.71;100285.53;5589601;31;34251;-67
2022/04/26 07:54:17;;;;;;;2.15;1.50;;;;;;;19.67;44.83;100288.03;5575434;31;33144;-66
2022/04/26 07:57:20;;;;;;;3.60;1.40;;;;;;;19.79;43.09;100281.66;5575375;31;32809;-66
2022/04/26 08:00:22;;;;;;;1.40;1.30;;;;;;;20.68;44.37;100290.50;5575402;31;33648;-68
2022/04/26 08:03:25;;;;;;;1.90;1.20;;;;;;;21.49;41.29;100286.84;5589518;31;34112;-67
2022/04/26 08:06:28;;;;;;;1.30;1.12;;;;;;;21.06;40.76;100293.50;5589217;31;34108;-66
2022/04/26 08:09:38;;;;;;;1.42;0.90;;;;;;;20.58;41.85;100299.19;5588888;31;33947;-65
2022/04/26 08:12:42;;;;;;;1.45;1.00;;;;;;;22.48;35.23;100296.94;5589514;31;34019;-66
2022/04/26 08:15:45;;;;;;;0.85;0.65;;;;;;;20.97;38.11;100286.03;5574950;31;32464;-67
2022/04/26 08:18:48;;;;;;;1.65;0.70;;;;;;;21.67;36.10;100290.16;5575048;31;32352;-65
2022/04/26 08:21:51;;;;;;;0.93;0.70;;;;;;;21.00;35.28;100289.09;5589139;31;34579;-66
2022/04/26 08:28:15;;;;;;;1.05;0.80;;;;;;;22.72;33.59;100299.47;5575201;31;32737;-67
2022/04/26 08:31:18;;;;;;;1.45;0.82;;;;;;;22.44;35.22;100294.97;5573837;31;33927;-67
2022/04/26 08:34:22;;;;;;;0.90;0.77;;;;;;;23.37;32.72;100296.78;5574718;31;32604;-67
2022/04/26 08:37:25;;;;;;;0.75;0.75;;;;;;;21.09;36.51;100295.75;5575100;31;32691;-67
2022/04/26 08:40:28;;;;;;;1.05;0.70;;;;;;;23.67;30.81;100304.47;5589079;31;33915;-69
2022/04/26 08:43:33;;;;;;;0.82;0.60;;;;;;;23.00;33.06;100309.28;5588322;31;34066;-67
2022/04/26 08:53:22;;;;;;;1.27;0.80;;;;;;;22.78;34.43;100301.16;5588808;31;33936;-66
2022/04/26 08:56:24;;;;;;;1.40;0.90;;;;;;;24.29;30.75;100296.62;5574452;31;32473;-66
2022/04/26 08:59:28;;;;;;;0.70;0.60;;;;;;;23.52;32.54;100299.69;5574738;31;32662;-66
2022/04/26 09:02:31;;;;;;;0.93;0.70;;;;;;;25.01;31.19;100304.16;5588286;31;34147;-67
2022/04/26 09:05:35;;;;;;;3.62;0.80;;;;;;;24.09;31.61;100305.37;5574134;31;32459;-67
2022/04/26 09:08:38;;;;;;;1.20;0.75;;;;;;;23.07;32.87;100307.22;5573887;31;32660;-66
2022/04/26 09:11:42;;;;;;;0.95;0.50;;;;;;;23.81;31.45;100305.69;5574142;31;32683;-66
2022/04/26 09:14:48;;;;;;;0.52;0.50;;;;;;;24.70;27.26;100295.00;5588146;31;34080;-66
2022/04/26 09:17:52;;;;;;;0.82;0.50;;;;;;;25.31;26.54;100300.75;5574555;31;32452;-66
2022/04/26 09:21:21;;;;;;;0.75;0.50;;;;;;;22.53;30.09;100297.00;5573979;31;33656;-67
2022/04/26 09:24:24;;;;;;;0.88;0.50;;;;;;;25.39;26.05;100303.75;5585544;31;34855;-65
2022/04/26 09:27:28;;;;;;;1.58;0.65;;;;;;;26.54;24.32;100303.34;5588039;31;34145;-66
2022/04/26 09:30:32;;;;;;;1.15;0.57;;;;;;;28.46;22.72;100289.56;5560890;31;32821;-66
2022/04/26 09:33:36;;;;;;;1.15;0.60;;;;;;;24.06;28.40;100286.91;5576081;31;32513;-66
2022/04/26 09:36:46;;;;;;;2.35;0.70;;;;;;;24.67;27.93;100292.81;5576907;31;32871;-66
2022/04/26 09:40:05;;;;;;;0.52;0.50;;;;;;;26.08;26.44;100297.13;5588681;31;35693;-64
2022/04/26 09:43:15;;;;;;;0.88;0.45;;;;;;;25.35;26.07;100296.41;5576882;31;33481;-66
2022/04/26 09:46:17;;;;;;;0.70;0.40;;;;;;;27.16;23.36;100298.28;5576504;31;32630;-67
2022/04/26 09:49:23;;;;;;;0.95;0.73;;;;;;;26.69;22.31;100300.59;5576225;31;33354;-66
2022/04/26 09:52:25;;;;;;;0.50;0.50;;;;;;;25.35;23.25;100294.53;5576113;31;33020;-65
2022/04/26 09:55:29;;;;;;;1.02;0.60;;;;;;;24.19;25.75;100283.00;5576157;31;32694;-66
2022/04/26 09:58:31;;;;;;;1.37;0.77;;;;;;;24.02;25.83;100277.66;5590451;31;34502;-69
2022/04/26 10:01:39;;;;;;;0.77;0.60;;;;;;;25.24;24.17;100281.16;5576758;31;32766;-67
2022/04/26 10:04:49;;;;;;;0.70;0.40;;;;;;;26.20;23.56;100284.87;5563418;31;33218;-66
2022/04/26 10:07:54;;;;;;;0.73;0.55;;;;;;;24.73;24.95;100277.37;5590268;31;34069;-67
2022/04/26 10:10:58;;;;;;;1.87;0.90;;;;;;;23.37;26.79;100278.66;5590011;31;34178;-65
2022/04/26 10:14:04;;;;;;;1.27;0.73;;;;;;;21.86;28.18;100277.25;5575953;31;34146;-65
2022/04/26 10:17:08;;;;;;;1.30;0.65;;;;;;;20.69;30.58;100267.91;5576300;31;32675;-65
2022/04/26 10:20:40;;;;;;;0.70;0.68;;;;;;;20.58;30.19;100269.53;5576214;31;33679;-64
2022/04/26 10:24:05;;;;;;;0.93;0.73;;;;;;;20.56;30.84;100268.97;5575755;31;32432;-65
2022/04/26 10:27:18;;;;;;;2.92;0.85;;;;;;;20.55;30.84;100272.72;5589521;31;33970;-65
2022/04/26 10:30:48;;;;;;;1.92;0.77;;;;;;;20.36;31.59;100261.25;5575706;31;34021;-64
2022/04/26 10:33:50;;;;;;;3.08;0.70;;;;;;;20.54;31.68;100259.47;5575732;31;33939;-64
2022/04/26 10:36:56;;;;;;;3.08;0.75;;;;;;;23.36;26.74;100257.25;5575732;31;32657;-66
2022/04/26 10:40:03;;;;;;;0.98;0.68;;;;;;;23.55;25.97;100258.56;5589831;31;33999;-65
2022/04/26 10:43:06;;;;;;;3.22;1.10;;;;;;;25.85;23.15;100260.41;5575910;31;32591;-66
2022/04/26 10:46:14;;;;;;;2.67;0.70;;;;;;;26.23;22.96;100261.78;5563029;31;32664;-65
2022/04/26 10:49:26;;;;;;;0.90;0.60;;;;;;;25.43;23.16;100255.16;5576036;31;33525;-67
2022/04/26 10:52:34;;;;;;;0.82;0.60;;;;;;;26.33;22.92;100259.88;5576426;31;33339;-65
2022/04/26 10:55:36;;;;;;;1.98;0.93;;;;;;;27.34;22.70;100260.63;5575292;31;32458;-66
2022/04/26 10:58:50;;;;;;;2.65;0.80;;;;;;;27.67;21.99;100249.00;5590187;31;35176;-66
2022/04/26 11:01:55;;;;;;;1.73;0.80;;;;;;;28.91;22.12;100254.66;5589682;31;34281;-66
2022/04/26 11:05:00;;;;;;;1.35;0.73;;;;;;;29.19;20.73;100248.28;5562743;31;34759;-66
2022/04/26 11:08:04;;;;;;;1.05;0.95;;;;;;;31.27;19.49;100253.72;5589775;31;33917;-66
2022/04/26 11:11:10;;;;;;;3.33;0.90;;;;;;;28.95;21.90;100250.25;5589877;31;34591;-67
2022/04/26 11:14:15;;;;;;;1.30;0.70;;;;;;;30.05;21.41;100247.03;5575687;31;33466;-67
2022/04/26 11:17:22;;;;;;;1.27;0.60;;;;;;;28.45;22.78;100244.25;5589626;31;33894;-66
2022/04/26 11:20:26;;;;;;;1.02;0.75;;;;;;;27.94;22.41;100243.87;5575962;31;33092;-66
2022/04/26 11:30:25;;;;;;;1.70;1.00;;;;;;;29.89;20.94;100248.41;5590037;31;33955;-66
2022/04/26 11:33:28;;;;;;;3.03;0.70;;;;;;;30.48;20.79;100246.84;5575826;31;33251;-68
2022/04/26 11:36:37;;;;;;;1.65;0.88;;;;;;;33.71;18.59;100245.25;5575710;31;32755;-66
2022/04/26 11:39:41;;;;;;;0.88;0.80;;;;;;;32.89;18.82;100235.91;5575156;31;35319;-66
2022/04/26 11:42:44;;;;;;;3.03;1.08;;;;;;;30.90;20.21;100237.50;5574787;31;32909;-67
2022/04/26 11:45:50;;;;;;;1.42;0.88;;;;;;;31.13;21.43;100241.19;5575629;31;32755;-71
2022/04/26 11:48:57;;;;;;;1.12;0.93;;;;;;;30.42;21.44;100229.66;5589312;31;34601;-67
2022/04/26 11:52:01;;;;;;;1.33;0.82;;;;;;;28.65;23.07;100234.22;5562435;31;33181;-67
2022/04/26 11:55:05;;;;;;;2.90;1.08;;;;;;;28.08;24.38;100233.09;5562724;31;32389;-67
2022/04/26 11:58:14;;;;;;;1.70;1.12;;;;;;;25.28;28.66;100222.53;5589753;31;33986;-66
2022/04/26 12:01:18;;;;;;;1.58;1.10;;;;;;;25.60;28.66;100228.59;5589527;31;33926;-65
2022/04/26 12:04:22;;;;;;;1.40;0.90;;;;;;;24.62;29.64;100217.66;5575332;31;33304;-65
2022/04/26 12:07:25;;;;;;;2.28;1.05;;;;;;;22.84;32.66;100216.31;5589460;31;33990;-65
2022/04/26 12:10:30;;;;;;;1.90;1.40;;;;;;;24.02;30.27;100217.22;5562555;31;32441;-66
2022/04/26 12:13:33;;;;;;;1.45;1.30;;;;;;;26.58;28.08;100214.63;5575604;31;32677;-66
2022/04/26 12:16:44;;;;;;;1.30;1.10;;;;;;;28.18;25.61;100224.88;5575290;31;34177;-64
2022/04/26 12:19:50;;;;;;;1.20;1.10;;;;;;;25.25;28.10;100217.63;5575083;31;32639;-65
2022/04/26 12:22:53;;;;;;;3.30;1.30;;;;;;;25.36;28.58;100220.13;5589471;31;33984;-65
2022/04/26 12:26:01;;;;;;;1.83;1.35;;;;;;;24.15;31.09;100209.50;5589504;31;34012;-67
2022/04/26 12:29:12;;;;;;;2.10;1.50;;;;;;;22.69;32.49;100210.69;5589071;31;34027;-66
2022/04/26 12:32:19;;;;;;;1.83;1.48;;;;;;;23.31;31.33;100209.28;5588912;31;34536;-64
2022/04/26 12:35:22;;;;;;;3.17;1.60;;;;;;;22.66;32.57;100208.47;5589078;31;34623;-65
2022/04/26 12:38:25;;;;;;;2.15;1.73;;;;;;;22.53;32.48;100204.25;5575189;31;33541;-65
2022/04/26 12:41:45;;;;;;;2.10;1.40;;;;;;;21.26;35.15;100206.78;5588802;31;34090;-64
2022/04/26 12:44:55;;;;;;;1.42;1.33;;;;;;;20.47;36.54;100197.63;5589058;31;33885;-64
2022/04/26 12:51:29;;;;;;;2.22;1.50;;;;;;;20.42;37.04;100186.75;5589094;31;34218;-64
2022/04/26 12:54:32;;;;;;;2.20;1.23;;;;;;;20.78;37.75;100183.72;5574849;31;33009;-64
2022/04/26 12:57:46;;;;;;;1.98;1.27;;;;;;;22.10;35.61;100180.69;5574583;31;33241;-65
2022/04/26 13:00:52;;;;;;;2.42;1.30;;;;;;;26.72;27.33;100183.84;5562058;31;32378;-66
2022/04/26 13:03:57;;;;;;;2.92;1.42;;;;;;;28.62;24.95;100175.53;5574704;31;32787;-65
2022/04/26 13:07:00;;;;;;;1.25;1.10;;;;;;;27.75;24.97;100182.97;5574465;31;33260;-65
2022/04/26 13:10:10;;;;;;;1.67;1.20;;;;;;;24.45;30.13;100175.50;5588753;31;33909;-65
2022/04/26 13:13:14;;;;;;;2.00;1.40;;;;;;;22.74;33.03;100170.22;5574527;31;32565;-65
2022/04/26 13:16:17;;;;;;;4.22;1.50;;;;;;;20.98;37.07;100180.59;5574286;31;33650;-64
2022/04/26 13:19:20;;;;;;;2.97;1.50;;;;;;;19.99;38.86;100178.19;5576744;31;33341;-65
2022/04/26 13:22:23;;;;;;;3.12;1.52;;;;;;;20.02;39.43;100173.16;5590971;31;34394;-65
2022/04/26 13:25:25;;;;;;;1.80;1.15;;;;;;;19.88;39.62;100174.44;5576791;31;33310;-65
2022/04/26 13:28:28;;;;;;;2.70;1.40;;;;;;;20.20;40.64;100170.31;5590718;31;34138;-64
2022/04/26 13:31:32;;;;;;;3.83;1.27;;;;;;;20.39;39.01;100181.81;5591072;31;34050;-64
2022/04/26 13:34:38;;;;;;;2.80;1.30;;;;;;;20.60;37.77;100172.28;5577229;31;34745;-64
2022/04/26 13:37:40;;;;;;;2.53;1.10;;;;;;;20.20;38.99;100167.62;5576742;31;33514;-64
2022/04/26 13:40:43;;;;;;;2.25;1.17;;;;;;;20.57;37.71;100173.59;5590015;31;34334;-65
2022/04/26 13:43:46;;;;;;;1.87;1.30;;;;;;;20.81;39.11;100161.69;5576288;31;33966;-65
2022/04/26 13:46:53;;;;;;;1.95;1.20;;;;;;;21.24;38.19;100174.66;5576348;31;32459;-65
2022/04/26 13:49:56;;;;;;;2.95;1.35;;;;;;;21.02;39.12;100170.16;5575912;31;32967;-65
2022/04/26 13:52:58;;;;;;;1.27;1.02;;;;;;;21.54;37.50;100163.56;5576425;31;32596;-65
2022/04/26 13:56:06;;;;;;;3.28;1.65;;;;;;;21.30;38.75;100161.28;5590232;31;34777;-65
2022/04/26 13:59:09;;;;;;;3.17;1.50;;;;;;;20.75;39.19;100157.25;5590132;31;34399;-65
2022/04/26 14:02:12;;;;;;;1.75;1.20;;;;;;;20.17;39.99;100161.91;5576169;31;33728;-65
2022/04/26 14:05:20;;;;;;;1.60;1.20;;;;;;;20.56;38.85;100163.88;5590155;31;34582;-65
2022/04/26 14:08:23;;;;;;;1.45;1.35;;;;;;;20.42;39.79;100162.50;5576106;31;32404;-64
2022/04/26 14:11:26;;;;;;;59.75;4.18;;;;;;;20.96;39.16;100161.12;5589621;31;33936;-65
2022/04/26 14:24:33;;;;;;;4.85;1.42;;;;;;;20.98;38.20;100159.03;5575554;31;32654;-65
2022/04/26 14:27:40;;;;;;;3.67;1.10;;;;;;;20.70;38.85;100161.72;5575052;31;34151;-65
2022/04/26 14:30:43;;;;;;;1.30;1.20;;;;;;;20.24;40.31;100165.28;5588476;31;34129;-66
2022/04/26 14:33:46;;;;;;;2.97;1.35;;;;;;;20.48;39.54;100166.91;5588833;31;34789;-65
2022/04/26 14:36:49;;;;;;;2.45;1.30;;;;;;;20.00;40.37;100164.47;5589410;31;34201;-65
2022/04/26 14:39:57;;;;;;;2.30;1.60;;;;;;;20.01;39.84;100160.72;5589448;31;33910;-66
2022/04/26 14:43:00;;;;;;;1.45;1.35;;;;;;;19.68;41.57;100155.91;5588742;31;33972;-64
2022/04/26 14:46:03;;;;;;;4.87;1.20;;;;;;;19.34;41.48;100162.84;5575541;31;32750;-65
2022/04/26 14:49:06;;;;;;;2.30;1.27;;;;;;;19.33;43.05;100157.69;5589519;31;33884;-65
2022/04/26 14:52:09;;;;;;;3.10;1.62;;;;;;;19.35;41.64;100158.28;5575495;31;32625;-64
2022/04/26 14:55:32;;;;;;;2.85;1.60;;;;;;;19.09;42.72;100157.62;5589282;31;34433;-65
2022/04/26 14:58:35;;;;;;;3.12;1.90;;;;;;;18.94;43.62;100156.38;5574947;31;33357;-65
2022/04/26 15:01:43;;;;;;;2.47;1.62;;;;;;;19.21;41.92;100162.22;5589095;31;34278;-64
2022/04/26 15:04:47;;;;;;;3.15;1.62;;;;;;;19.23;41.83;100160.13;5589240;31;33877;-63
2022/04/26 15:11:14;;;;;;;2.50;1.60;;;;;;;19.45;40.89;100155.87;5574540;31;33188;-63
2022/04/26 15:17:38;;;;;;;3.90;1.77;;;;;;;19.96;39.96;100150.66;5588843;31;34353;-64
2022/04/26 15:20:42;;;;;;;2.10;1.50;;;;;;;19.59;41.02;100154.63;5589155;31;34101;-65
2022/04/26 15:23:45;;;;;;;2.47;1.52;;;;;;;19.44;41.73;100147.00;5588784;31;34445;-64
2022/04/26 15:26:48;;;;;;;2.72;1.70;;;;;;;20.09;40.27;100152.28;5574804;31;32840;-63
2022/04/26 15:29:50;;;;;;;2.97;1.90;;;;;;;20.13;39.05;100150.78;5574740;31;33430;-64
2022/04/26 15:32:53;;;;;;;2.92;1.58;;;;;;;19.71;39.83;100149.25;5588907;31;34751;-64
2022/04/26 15:35:57;;;;;;;2.33;1.45;;;;;;;19.20;41.46;100137.19;5588570;31;33964;-65
2022/04/26 15:39:00;;;;;;;2.53;1.50;;;;;;;19.18;41.85;100141.97;5574877;31;33383;-64
2022/04/26 15:42:03;;;;;;;1.62;1.40;;;;;;;19.30;42.18;100140.16;5588494;31;34632;-65
2022/04/26 15:45:06;;;;;;;2.25;1.60;;;;;;;19.37;42.44;100137.34;5573962;31;32928;-65
2022/04/26 15:48:09;;;;;;;4.20;1.33;;;;;;;19.18;42.67;100138.47;5588698;31;35094;-65
2022/04/26 15:51:12;;;;;;;3.67;1.65;;;;;;;19.51;41.99;100138.81;5588599;31;33880;-64
2022/04/26 15:54:16;;;;;;;1.50;1.25;;;;;;;19.53;41.39;100134.03;5588869;31;34276;-64
2022/04/26 15:57:18;;;;;;;1.55;1.40;;;;;;;19.60;41.21;100142.81;5588673;31;34659;-63
2022/04/26 16:00:21;;;;;;;1.73;1.20;;;;;;;19.07;42.25;100127.44;5575059;31;33511;-64
2022/04/26 16:03:24;;;;;;;2.10;1.73;;;;;;;18.80;44.08;100136.09;5588624;31;34091;-64
2022/04/26 16:06:27;;;;;;;1.92;1.40;;;;;;;18.94;43.58;100134.88;5575093;31;33814;-64
2022/04/26 16:22:57;;;;;;;2.87;1.58;;;;;;;21.12;37.56;100133.41;5588873;31;34608;-64
2022/04/26 16:26:02;;;;;;;2.75;1.30;;;;;;;21.37;37.71;100133.06;5574666;31;33966;-65
2022/04/26 16:29:07;;;;;;;2.15;1.37;;;;;;;19.18;42.56;100135.78;5589023;31;34645;-64
2022/04/26 16:32:10;;;;;;;2.92;1.40;;;;;;;18.59;44.37;100132.03;5574455;31;32450;-64
2022/04/26 16:35:13;;;;;;;2.17;1.30;;;;;;;18.22;45.57;100133.88;5575043;31;33965;-64
2022/04/26 16:38:17;;;;;;;1.40;1.10;;;;;;;17.97;46.61;100133.13;5588750;31;34293;-64
2022/04/26 16:41:21;;;;;;;4.22;1.20;;;;;;;17.99;46.55;100133.72;5588514;31;34267;-65
2022/04/26 16:44:23;;;;;;;2.60;1.42;;;;;;;17.76;47.37;100142.41;5574267;31;33233;-64
2022/04/26 16:47:26;;;;;;;2.67;1.10;;;;;;;17.72;47.72;100135.81;5588929;31;34062;-65
2022/04/26 16:50:29;;;;;;;2.42;1.40;;;;;;;17.64;48.33;100149.53;5574126;31;32344;-65
2022/04/26 16:53:32;;;;;;;2.17;1.45;;;;;;;17.57;48.16;100146.06;5573765;31;32519;-64
2022/04/26 16:56:35;;;;;;;2.10;1.52;;;;;;;17.33;49.45;100153.84;5588488;31;34771;-63
2022/04/26 16:59:38;;;;;;;4.93;1.40;;;;;;;17.35;49.54;100146.41;5574536;31;33265;-64
2022/04/26 17:02:41;;;;;;;2.42;1.50;;;;;;;17.20;49.90;100151.25;5574541;31;34504;-65
2022/04/26 17:05:47;;;;;;;1.92;1.20;;;;;;;17.27;50.28;100153.91;5574471;31;32858;-64
2022/04/26 17:08:50;;;;;;;3.30;1.50;;;;;;;17.18;50.77;100157.88;5588372;31;34124;-65
2022/04/26 17:11:53;;;;;;;2.15;1.45;;;;;;;17.15;51.12;100156.44;5588337;31;34107;-64
2022/04/26 17:14:55;;;;;;;6.62;2.22;;;;;;;17.17;51.31;100158.91;5588185;31;34804;-64
2022/04/26 17:17:58;;;;;;;1.85;1.37;;;;;;;17.10;52.00;100160.81;5573974;31;33984;-64
2022/04/26 17:21:02;;;;;;;3.67;1.70;;;;;;;16.93;52.24;100155.97;5588137;31;33991;-63
2022/04/26 17:25:13;;;;;;;2.25;1.50;;;;;;;16.80;52.92;100164.06;5587435;31;33922;-63
2022/04/26 17:27:28;;;;;;;1.87;1.25;;;;;;;16.74;53.11;100162.25;5587634;31;34254;-64
2022/04/26 17:30:31;;;;;;;3.37;1.40;;;;;;;16.61;54.44;100164.12;5587870;31;34079;-64
2022/04/26 17:33:34;;;;;;;8.32;1.62;;;;;;;16.57;53.81;100168.25;5573555;31;32791;-63
2022/04/26 17:36:41;;;;;;;2.65;1.70;;;;;;;16.51;54.05;100170.72;5573893;31;33605;-64
2022/04/26 17:40:05;;;;;;;4.40;1.55;;;;;;;16.47;54.15;100169.50;5563461;31;33245;-63
2022/04/26 17:43:08;;;;;;;3.58;1.37;;;;;;;16.42;53.71;100171.19;5560680;31;33523;-64
2022/04/26 17:46:11;;;;;;;4.62;1.60;;;;;;;16.38;54.28;100178.00;5573850;31;32804;-64
2022/04/26 17:49:15;;;;;;;5.07;1.40;;;;;;;16.27;54.79;100176.78;5573668;31;32820;-64
2022/04/26 17:52:17;;;;;;;3.12;1.60;;;;;;;16.26;54.92;100180.50;5587208;31;33906;-64
2022/04/26 17:58:43;;;;;;;3.30;1.33;;;;;;;16.14;55.08;100176.81;5573345;31;33129;-63
2022/04/26 18:01:46;;;;;;;5.55;1.60;;;;;;;16.18;54.63;100177.22;5573593;31;33068;-64
2022/04/26 18:04:49;;;;;;;2.97;1.60;;;;;;;16.12;55.36;100184.22;5575839;31;34120;-64
2022/04/26 18:07:51;;;;;;;2.45;1.30;;;;;;;16.09;55.38;100184.62;5590285;31;35314;-64
2022/04/26 18:10:55;;;;;;;3.03;1.90;;;;;;;16.11;55.37;100187.13;5576204;31;32776;-63
2022/04/26 18:13:58;;;;;;;4.65;1.70;;;;;;;16.12;55.28;100184.22;5576433;31;33499;-63
2022/04/26 18:17:02;;;;;;;4.40;1.70;;;;;;;16.06;55.13;100193.09;5576227;31;33714;-63
2022/04/26 18:20:05;;;;;;;2.12;1.55;;;;;;;15.91;56.12;100196.00;5576399;31;32537;-63
2022/04/26 18:23:10;;;;;;;2.97;1.83;;;;;;;15.92;55.98;100189.63;5576033;31;32502;-63
2022/04/26 18:26:19;;;;;;;4.87;1.80;;;;;;;15.81;56.46;100192.91;5589798;31;34816;-63
2022/04/26 18:29:21;;;;;;;4.55;1.90;;;;;;;15.77;56.66;100197.03;5575665;31;34821;-63
2022/04/26 18:32:24;;;;;;;3.47;1.90;;;;;;;15.71;57.22;100205.03;5590098;31;34125;-63
2022/04/26 18:35:27;;;;;;;2.30;1.87;;;;;;;15.80;57.00;100207.31;5590240;31;34401;-63
2022/04/26 18:38:29;;;;;;;2.90;2.03;;;;;;;15.78;56.92;100212.03;5576351;31;33388;-63
2022/04/26 18:41:32;;;;;;;6.32;2.40;;;;;;;15.70;57.19;100214.06;5576128;31;32476;-63
2022/04/26 18:44:34;;;;;;;4.30;2.00;;;;;;;15.79;57.06;100219.03;5575788;31;32415;-63
2022/04/26 18:47:38;;;;;;;3.62;2.20;;;;;;;15.67;57.96;100219.84;5575866;31;32658;-63
2022/04/26 18:50:40;;;;;;;4.35;2.40;;;;;;;15.68;57.51;100224.19;5575506;31;32903;-63
2022/04/26 18:53:43;;;;;;;3.67;2.30;;;;;;;15.59;58.33;100226.19;5576108;31;32329;-63